sensor_id;sensor_type;location;lat;lon;timestamp;pressure;altitude;pressure_sealevel;temperature;humidity
39487;BME280;25173;50.430;18.926;2024-02-14T00:02:46;98733.44;;;6.66;65.62
39487;BME280;25173;50.430;18.926;2024-02-14T00:05:50;98736.84;;;6.73;66.07
39487;BME280;25173;50.430;18.926;2024-02-14T00:08:52;98729.75;;;6.83;65.72
39487;BME280;25173;50.430;18.926;2024-02-14T00:11:53;98740.25;;;6.91;65.73
39487;BME280;25173;50.430;18.926;2024-02-14T00:14:53;98741.16;;;6.97;65.59
39487;BME280;25173;50.430;18.926;2024-02-14T00:17:54;98743.88;;;6.97;65.39
39487;BME280;25173;50.430;18.926;2024-02-14T00:20:55;98743.41;;;7.00;65.56
39487;BME280;25173;50.430;18.926;2024-02-14T00:23:55;98747.88;;;7.06;65.68
39487;BME280;25173;50.430;18.926;2024-02-14T00:26:58;98749.53;;;7.07;65.60
39487;BME280;25173;50.430;18.926;2024-02-14T00:30:00;98748.94;;;7.05;65.78
39487;BME280;25173;50.430;18.926;2024-02-14T00:33:02;98744.22;;;7.12;65.88
39487;BME280;25173;50.430;18.926;2024-02-14T00:36:02;98739.16;;;7.16;65.75
39487;BME280;25173;50.430;18.926;2024-02-14T00:39:03;98745.50;;;7.21;65.63
39487;BME280;25173;50.430;18.926;2024-02-14T00:42:03;98746.56;;;7.20;65.78
39487;BME280;25173;50.430;18.926;2024-02-14T00:45:05;98743.03;;;7.20;65.89
39487;BME280;25173;50.430;18.926;2024-02-14T00:48:09;98745.03;;;7.24;65.58
39487;BME280;25173;50.430;18.926;2024-02-14T00:51:10;98746.19;;;7.28;65.38
39487;BME280;25173;50.430;18.926;2024-02-14T00:54:10;98746.31;;;7.33;65.02
39487;BME280;25173;50.430;18.926;2024-02-14T00:57:11;98754.19;;;7.35;64.66
39487;BME280;25173;50.430;18.926;2024-02-14T01:00:13;98755.03;;;7.35;64.50
39487;BME280;25173;50.430;18.926;2024-02-14T01:03:14;98749.84;;;7.34;64.29
39487;BME280;25173;50.430;18.926;2024-02-14T01:06:15;98747.84;;;7.29;64.50
39487;BME280;25173;50.430;18.926;2024-02-14T01:09:16;98747.84;;;7.29;64.70
39487;BME280;25173;50.430;18.926;2024-02-14T01:12:17;98739.97;;;7.28;64.93
39487;BME280;25173;50.430;18.926;2024-02-14T01:15:18;98738.66;;;7.30;64.73
39487;BME280;25173;50.430;18.926;2024-02-14T01:18:19;98727.81;;;7.30;64.13
39487;BME280;25173;50.430;18.926;2024-02-14T01:21:19;98728.78;;;7.24;64.14
39487;BME280;25173;50.430;18.926;2024-02-14T01:24:20;98735.72;;;7.20;64.35
39487;BME280;25173;50.430;18.926;2024-02-14T01:27:22;98734.22;;;7.24;64.59
39487;BME280;25173;50.430;18.926;2024-02-14T01:30:23;98723.94;;;7.26;64.51
39487;BME280;25173;50.430;18.926;2024-02-14T01:33:25;98724.75;;;7.27;65.02
39487;BME280;25173;50.430;18.926;2024-02-14T01:36:26;98720.75;;;7.29;65.17
39487;BME280;25173;50.430;18.926;2024-02-14T01:39:26;98718.03;;;7.29;65.26
39487;BME280;25173;50.430;18.926;2024-02-14T01:42:27;98724.16;;;7.36;64.91
39487;BME280;25173;50.430;18.926;2024-02-14T01:45:28;98728.28;;;7.39;64.82
39487;BME280;25173;50.430;18.926;2024-02-14T01:48:28;98734.63;;;7.45;64.73
39487;BME280;25173;50.430;18.926;2024-02-14T01:51:29;98725.66;;;7.44;64.07
39487;BME280;25173;50.430;18.926;2024-02-14T01:54:33;98733.34;;;7.47;64.06
39487;BME280;25173;50.430;18.926;2024-02-14T01:57:34;98728.75;;;7.48;64.19
39487;BME280;25173;50.430;18.926;2024-02-14T02:00:36;98723.06;;;7.49;63.94
39487;BME280;25173;50.430;18.926;2024-02-14T02:03:41;98729.34;;;7.26;62.14
39487;BME280;25173;50.430;18.926;2024-02-14T02:06:42;98727.75;;;7.14;64.38
39487;BME280;25173;50.430;18.926;2024-02-14T02:09:43;98723.59;;;7.23;64.74
39487;BME280;25173;50.430;18.926;2024-02-14T02:12:43;98733.56;;;7.34;64.46
39487;BME280;25173;50.430;18.926;2024-02-14T02:15:44;98729.56;;;7.36;64.25
39487;BME280;25173;50.430;18.926;2024-02-14T02:18:45;98734.63;;;7.45;64.26
39487;BME280;25173;50.430;18.926;2024-02-14T02:21:46;98731.19;;;7.49;64.06
39487;BME280;25173;50.430;18.926;2024-02-14T02:24:47;98736.38;;;7.51;63.94
39487;BME280;25173;50.430;18.926;2024-02-14T02:27:48;98736.59;;;7.49;64.03
39487;BME280;25173;50.430;18.926;2024-02-14T02:30:48;98732.75;;;7.45;64.11
39487;BME280;25173;50.430;18.926;2024-02-14T02:33:49;98733.06;;;7.49;64.02
39487;BME280;25173;50.430;18.926;2024-02-14T02:36:52;98739.44;;;7.54;63.81
39487;BME280;25173;50.430;18.926;2024-02-14T02:39:53;98733.28;;;7.59;64.00
39487;BME280;25173;50.430;18.926;2024-02-14T02:42:54;98734.56;;;7.56;63.94
39487;BME280;25173;50.430;18.926;2024-02-14T02:45:55;98736.97;;;7.53;64.07
39487;BME280;25173;50.430;18.926;2024-02-14T02:48:57;98738.63;;;7.54;64.19
39487;BME280;25173;50.430;18.926;2024-02-14T02:51:59;98743.06;;;7.60;64.28
39487;BME280;25173;50.430;18.926;2024-02-14T02:54:59;98738.13;;;7.57;64.24
39487;BME280;25173;50.430;18.926;2024-02-14T02:58:01;98740.94;;;7.62;64.22
39487;BME280;25173;50.430;18.926;2024-02-14T03:01:02;98736.22;;;7.69;64.13
39487;BME280;25173;50.430;18.926;2024-02-14T03:04:04;98739.84;;;7.74;64.01
39487;BME280;25173;50.430;18.926;2024-02-14T03:07:05;98746.66;;;7.77;63.78
39487;BME280;25173;50.430;18.926;2024-02-14T03:10:08;98744.78;;;7.77;63.61
39487;BME280;25173;50.430;18.926;2024-02-14T03:13:09;98754.81;;;7.77;63.46
39487;BME280;25173;50.430;18.926;2024-02-14T03:16:12;98757.97;;;7.74;63.20
39487;BME280;25173;50.430;18.926;2024-02-14T03:19:12;98750.31;;;7.71;63.35
39487;BME280;25173;50.430;18.926;2024-02-14T03:22:13;98752.34;;;7.64;63.14
39487;BME280;25173;50.430;18.926;2024-02-14T03:25:17;98753.22;;;7.53;63.01
39487;BME280;25173;50.430;18.926;2024-02-14T03:28:18;98753.97;;;7.36;62.97
39487;BME280;25173;50.430;18.926;2024-02-14T03:31:18;98759.97;;;7.27;63.35
39487;BME280;25173;50.430;18.926;2024-02-14T03:34:19;98762.72;;;7.15;63.59
39487;BME280;25173;50.430;18.926;2024-02-14T03:37:20;98757.44;;;7.09;63.75
39487;BME280;25173;50.430;18.926;2024-02-14T03:40:20;98768.50;;;7.07;63.44
39487;BME280;25173;50.430;18.926;2024-02-14T03:43:21;98769.34;;;6.96;63.35
39487;BME280;25173;50.430;18.926;2024-02-14T03:46:24;98770.03;;;6.80;63.54
39487;BME280;25173;50.430;18.926;2024-02-14T03:49:25;98774.59;;;6.68;64.05
39487;BME280;25173;50.430;18.926;2024-02-14T03:52:26;98772.81;;;6.61;64.38
39487;BME280;25173;50.430;18.926;2024-02-14T03:55:26;98771.88;;;6.56;64.89
39487;BME280;25173;50.430;18.926;2024-02-14T03:58:27;98766.59;;;6.49;64.86
39487;BME280;25173;50.430;18.926;2024-02-14T04:01:28;98771.50;;;6.41;65.16
39487;BME280;25173;50.430;18.926;2024-02-14T04:04:29;98769.97;;;6.33;65.40
39487;BME280;25173;50.430;18.926;2024-02-14T04:07:30;98774.66;;;6.26;65.21
39487;BME280;25173;50.430;18.926;2024-02-14T04:10:31;98779.22;;;6.14;65.57
39487;BME280;25173;50.430;18.926;2024-02-14T04:13:31;98774.84;;;6.13;65.99
39487;BME280;25173;50.430;18.926;2024-02-14T04:16:32;98783.09;;;6.18;65.29
39487;BME280;25173;50.430;18.926;2024-02-14T04:19:33;98782.47;;;6.16;64.55
39487;BME280;25173;50.430;18.926;2024-02-14T04:22:33;98790.03;;;6.14;64.43
39487;BME280;25173;50.430;18.926;2024-02-14T04:25:35;98784.47;;;6.09;64.34
39487;BME280;25173;50.430;18.926;2024-02-14T04:28:38;98793.88;;;6.06;64.33
39487;BME280;25173;50.430;18.926;2024-02-14T04:31:40;98785.50;;;6.08;64.39
39487;BME280;25173;50.430;18.926;2024-02-14T04:34:43;98788.22;;;6.08;64.41
39487;BME280;25173;50.430;18.926;2024-02-14T04:37:43;98797.72;;;5.99;64.35
39487;BME280;25173;50.430;18.926;2024-02-14T04:40:46;98795.97;;;5.86;64.45
39487;BME280;25173;50.430;18.926;2024-02-14T04:43:48;98784.19;;;5.80;64.50
39487;BME280;25173;50.430;18.926;2024-02-14T04:46:48;98787.72;;;5.81;64.11
39487;BME280;25173;50.430;18.926;2024-02-14T04:49:49;98794.19;;;5.80;64.20
39487;BME280;25173;50.430;18.926;2024-02-14T04:52:51;98790.66;;;5.79;64.39
39487;BME280;25173;50.430;18.926;2024-02-14T04:55:52;98781.72;;;5.79;64.26
39487;BME280;25173;50.430;18.926;2024-02-14T04:58:54;98788.78;;;5.80;64.10
39487;BME280;25173;50.430;18.926;2024-02-14T05:01:57;98789.00;;;5.78;63.81
39487;BME280;25173;50.430;18.926;2024-02-14T05:04:59;98783.84;;;5.77;63.85
39487;BME280;25173;50.430;18.926;2024-02-14T05:07:59;98782.28;;;5.69;64.17
39487;BME280;25173;50.430;18.926;2024-02-14T05:11:00;98782.72;;;5.66;64.26
39487;BME280;25173;50.430;18.926;2024-02-14T05:14:01;98777.19;;;5.61;64.35
39487;BME280;25173;50.430;18.926;2024-02-14T05:17:02;98783.25;;;5.57;64.41
39487;BME280;25173;50.430;18.926;2024-02-14T05:20:05;98781.47;;;5.51;64.39
39487;BME280;25173;50.430;18.926;2024-02-14T05:23:09;98786.50;;;5.47;64.38
39487;BME280;25173;50.430;18.926;2024-02-14T05:26:11;98778.97;;;5.49;64.11
39487;BME280;25173;50.430;18.926;2024-02-14T05:29:12;98788.06;;;5.55;63.84
39487;BME280;25173;50.430;18.926;2024-02-14T05:32:12;98783.13;;;5.52;63.62
39487;BME280;25173;50.430;18.926;2024-02-14T05:35:14;98781.09;;;5.47;63.50
39487;BME280;25173;50.430;18.926;2024-02-14T05:38:15;98795.88;;;5.44;63.85
39487;BME280;25173;50.430;18.926;2024-02-14T05:41:16;98798.78;;;5.43;63.93
39487;BME280;25173;50.430;18.926;2024-02-14T05:44:18;98792.97;;;5.46;64.17
39487;BME280;25173;50.430;18.926;2024-02-14T05:47:19;98799.75;;;5.48;64.08
39487;BME280;25173;50.430;18.926;2024-02-14T05:50:19;98794.00;;;5.45;64.17
39487;BME280;25173;50.430;18.926;2024-02-14T05:53:20;98797.16;;;5.42;64.34
39487;BME280;25173;50.430;18.926;2024-02-14T05:56:20;98801.28;;;5.44;63.92
39487;BME280;25173;50.430;18.926;2024-02-14T05:59:21;98802.53;;;5.42;63.51
39487;BME280;25173;50.430;18.926;2024-02-14T06:02:22;98804.50;;;5.35;63.44
39487;BME280;25173;50.430;18.926;2024-02-14T06:05:22;98814.94;;;5.31;63.50
39487;BME280;25173;50.430;18.926;2024-02-14T06:08:23;98811.31;;;5.19;63.74
39487;BME280;25173;50.430;18.926;2024-02-14T06:11:24;98814.53;;;5.10;64.03
39487;BME280;25173;50.430;18.926;2024-02-14T06:14:24;98815.66;;;5.02;64.41
39487;BME280;25173;50.430;18.926;2024-02-14T06:17:25;98818.50;;;5.07;64.51
39487;BME280;25173;50.430;18.926;2024-02-14T06:20:28;98815.09;;;5.18;64.46
39487;BME280;25173;50.430;18.926;2024-02-14T06:23:29;98817.53;;;5.20;64.42
39487;BME280;25173;50.430;18.926;2024-02-14T06:26:30;98812.53;;;5.23;64.62
39487;BME280;25173;50.430;18.926;2024-02-14T06:29:31;98811.00;;;5.27;64.60
39487;BME280;25173;50.430;18.926;2024-02-14T06:32:32;98816.13;;;5.35;64.30
39487;BME280;25173;50.430;18.926;2024-02-14T06:35:33;98814.78;;;5.44;63.78
39487;BME280;25173;50.430;18.926;2024-02-14T06:38:33;98822.19;;;5.49;63.60
39487;BME280;25173;50.430;18.926;2024-02-14T06:41:34;98816.81;;;5.49;64.06
39487;BME280;25173;50.430;18.926;2024-02-14T06:44:34;98822.94;;;5.56;64.35
39487;BME280;25173;50.430;18.926;2024-02-14T06:47:35;98824.31;;;5.65;64.21
39487;BME280;25173;50.430;18.926;2024-02-14T06:50:36;98823.56;;;5.76;63.90
39487;BME280;25173;50.430;18.926;2024-02-14T06:53:38;98825.06;;;5.91;63.81
39487;BME280;25173;50.430;18.926;2024-02-14T06:56:38;98824.75;;;5.99;63.43
39487;BME280;25173;50.430;18.926;2024-02-14T06:59:39;98828.19;;;6.06;63.80
39487;BME280;25173;50.430;18.926;2024-02-14T07:02:40;98836.22;;;6.12;63.89
39487;BME280;25173;50.430;18.926;2024-02-14T07:05:41;98820.94;;;6.18;64.12
39487;BME280;25173;50.430;18.926;2024-02-14T07:08:42;98830.00;;;6.23;64.25
39487;BME280;25173;50.430;18.926;2024-02-14T07:11:42;98831.94;;;6.35;64.28
39487;BME280;25173;50.430;18.926;2024-02-14T07:14:43;98823.03;;;6.46;64.40
39487;BME280;25173;50.430;18.926;2024-02-14T07:17:44;98835.78;;;6.57;64.54
39487;BME280;25173;50.430;18.926;2024-02-14T07:20:44;98829.94;;;6.72;64.65
39487;BME280;25173;50.430;18.926;2024-02-14T07:23:45;98834.53;;;6.83;64.71
39487;BME280;25173;50.430;18.926;2024-02-14T07:26:45;98823.50;;;6.96;64.61
39487;BME280;25173;50.430;18.926;2024-02-14T07:29:46;98828.31;;;7.06;64.55
39487;BME280;25173;50.430;18.926;2024-02-14T07:32:47;98823.97;;;7.16;64.59
39487;BME280;25173;50.430;18.926;2024-02-14T07:35:47;98818.75;;;7.26;64.50
39487;BME280;25173;50.430;18.926;2024-02-14T07:38:48;98825.00;;;7.38;64.61
39487;BME280;25173;50.430;18.926;2024-02-14T07:41:50;98826.63;;;7.51;64.61
39487;BME280;25173;50.430;18.926;2024-02-14T07:44:51;98825.53;;;7.64;64.68
39487;BME280;25173;50.430;18.926;2024-02-14T07:47:52;98827.31;;;7.70;64.44
39487;BME280;25173;50.430;18.926;2024-02-14T07:50:53;98828.09;;;7.82;64.53
39487;BME280;25173;50.430;18.926;2024-02-14T07:53:54;98822.41;;;7.95;64.67
39487;BME280;25173;50.430;18.926;2024-02-14T07:56:54;98824.25;;;8.06;64.34
39487;BME280;25173;50.430;18.926;2024-02-14T07:59:55;98832.13;;;8.19;64.31
39487;BME280;25173;50.430;18.926;2024-02-14T08:02:56;98831.59;;;8.34;64.25
39487;BME280;25173;50.430;18.926;2024-02-14T08:05:56;98833.09;;;8.42;64.02
39487;BME280;25173;50.430;18.926;2024-02-14T08:08:57;98835.31;;;8.45;63.98
39487;BME280;25173;50.430;18.926;2024-02-14T08:12:02;98832.72;;;8.50;63.84
39487;BME280;25173;50.430;18.926;2024-02-14T08:15:03;98834.44;;;8.56;63.83
39487;BME280;25173;50.430;18.926;2024-02-14T08:18:06;98834.38;;;8.68;63.64
39487;BME280;25173;50.430;18.926;2024-02-14T08:21:06;98834.78;;;8.76;63.61
39487;BME280;25173;50.430;18.926;2024-02-14T08:24:07;98840.88;;;8.83;63.59
39487;BME280;25173;50.430;18.926;2024-02-14T08:27:08;98848.56;;;8.86;63.59
39487;BME280;25173;50.430;18.926;2024-02-14T08:30:09;98842.72;;;8.94;63.77
39487;BME280;25173;50.430;18.926;2024-02-14T08:33:10;98842.84;;;9.05;63.58
39487;BME280;25173;50.430;18.926;2024-02-14T08:36:11;98851.66;;;9.12;63.53
39487;BME280;25173;50.430;18.926;2024-02-14T08:39:11;98849.53;;;9.14;63.11
39487;BME280;25173;50.430;18.926;2024-02-14T08:42:12;98839.41;;;9.09;62.87
39487;BME280;25173;50.430;18.926;2024-02-14T08:45:13;98827.78;;;9.14;62.96
39487;BME280;25173;50.430;18.926;2024-02-14T08:48:14;98829.50;;;9.20;63.01
39487;BME280;25173;50.430;18.926;2024-02-14T08:51:15;98832.56;;;9.23;62.56
39487;BME280;25173;50.430;18.926;2024-02-14T08:54:15;98822.94;;;9.16;62.29
39487;BME280;25173;50.430;18.926;2024-02-14T08:57:16;98828.13;;;9.17;62.83
39487;BME280;25173;50.430;18.926;2024-02-14T09:00:18;98824.56;;;9.33;62.89
39487;BME280;25173;50.430;18.926;2024-02-14T09:03:19;98834.50;;;9.45;62.56
39487;BME280;25173;50.430;18.926;2024-02-14T09:06:20;98832.78;;;9.55;62.24
39487;BME280;25173;50.430;18.926;2024-02-14T09:09:21;98829.59;;;9.63;62.09
39487;BME280;25173;50.430;18.926;2024-02-14T09:12:25;98824.88;;;9.76;62.26
39487;BME280;25173;50.430;18.926;2024-02-14T09:15:25;98823.09;;;9.86;61.73
39487;BME280;25173;50.430;18.926;2024-02-14T09:18:27;98815.75;;;9.87;61.19
39487;BME280;25173;50.430;18.926;2024-02-14T09:21:27;98820.19;;;9.93;61.03
39487;BME280;25173;50.430;18.926;2024-02-14T09:24:28;98821.38;;;10.02;60.93
39487;BME280;25173;50.430;18.926;2024-02-14T09:27:29;98819.84;;;10.11;60.26
39487;BME280;25173;50.430;18.926;2024-02-14T09:30:29;98830.91;;;10.21;60.28
39487;BME280;25173;50.430;18.926;2024-02-14T09:33:31;98833.16;;;10.29;59.81
39487;BME280;25173;50.430;18.926;2024-02-14T09:36:31;98833.25;;;10.39;59.63
39487;BME280;25173;50.430;18.926;2024-02-14T09:39:32;98825.22;;;10.49;59.50
39487;BME280;25173;50.430;18.926;2024-02-14T09:42:56;98814.34;;;10.55;58.33
39487;BME280;25173;50.430;18.926;2024-02-14T09:45:58;98821.94;;;10.52;58.41
39487;BME280;25173;50.430;18.926;2024-02-14T09:48:59;98815.53;;;10.64;58.58
39487;BME280;25173;50.430;18.926;2024-02-14T09:52:01;98827.88;;;10.71;57.89
39487;BME280;25173;50.430;18.926;2024-02-14T09:55:03;98822.78;;;10.80;57.50
39487;BME280;25173;50.430;18.926;2024-02-14T09:58:06;98818.41;;;10.79;56.63
39487;BME280;25173;50.430;18.926;2024-02-14T10:01:07;98819.47;;;10.78;56.98
39487;BME280;25173;50.430;18.926;2024-02-14T10:04:08;98808.34;;;10.84;56.41
39487;BME280;25173;50.430;18.926;2024-02-14T10:07:08;98808.72;;;10.93;56.80
39487;BME280;25173;50.430;18.926;2024-02-14T10:10:10;98806.09;;;11.08;56.50
39487;BME280;25173;50.430;18.926;2024-02-14T10:13:11;98805.03;;;11.09;55.97
39487;BME280;25173;50.430;18.926;2024-02-14T10:16:11;98807.25;;;11.17;56.11
39487;BME280;25173;50.430;18.926;2024-02-14T10:19:17;98801.38;;;11.36;56.21
39487;BME280;25173;50.430;18.926;2024-02-14T10:22:17;98802.22;;;11.41;55.69
39487;BME280;25173;50.430;18.926;2024-02-14T10:25:18;98795.97;;;11.46;55.49
39487;BME280;25173;50.430;18.926;2024-02-14T10:28:20;98805.25;;;11.50;54.94
39487;BME280;25173;50.430;18.926;2024-02-14T10:31:25;98792.19;;;11.52;54.86
39487;BME280;25173;50.430;18.926;2024-02-14T10:34:26;98796.06;;;11.61;54.80
39487;BME280;25173;50.430;18.926;2024-02-14T10:37:28;98790.31;;;11.57;53.98
39487;BME280;25173;50.430;18.926;2024-02-14T10:40:32;98787.56;;;11.52;54.14
39487;BME280;25173;50.430;18.926;2024-02-14T10:43:33;98783.72;;;11.48;53.85
39487;BME280;25173;50.430;18.926;2024-02-14T10:46:36;98772.53;;;11.50;54.14
39487;BME280;25173;50.430;18.926;2024-02-14T10:49:39;98776.41;;;11.64;54.16
39487;BME280;25173;50.430;18.926;2024-02-14T10:52:44;98764.72;;;11.68;53.37
39487;BME280;25173;50.430;18.926;2024-02-14T10:55:48;98779.72;;;11.71;53.70
39487;BME280;25173;50.430;18.926;2024-02-14T10:58:52;98772.66;;;11.70;53.14
39487;BME280;25173;50.430;18.926;2024-02-14T11:01:55;98778.16;;;11.75;53.08
39487;BME280;25173;50.430;18.926;2024-02-14T11:04:57;98774.88;;;11.78;52.92
39487;BME280;25173;50.430;18.926;2024-02-14T11:08:07;98772.19;;;11.83;52.12
39487;BME280;25173;50.430;18.926;2024-02-14T11:11:11;98761.28;;;11.88;52.54
39487;BME280;25173;50.430;18.926;2024-02-14T11:14:16;98766.47;;;11.95;52.64
39487;BME280;25173;50.430;18.926;2024-02-14T11:17:19;98763.78;;;12.05;53.02
39487;BME280;25173;50.430;18.926;2024-02-14T11:20:32;98764.66;;;12.26;52.51
39487;BME280;25173;50.430;18.926;2024-02-14T11:23:33;98759.75;;;12.28;51.71
39487;BME280;25173;50.430;18.926;2024-02-14T11:26:39;98755.94;;;12.29;51.53
39487;BME280;25173;50.430;18.926;2024-02-14T11:29:40;98754.84;;;12.40;51.78
39487;BME280;25173;50.430;18.926;2024-02-14T11:32:42;98746.66;;;12.55;51.66
39487;BME280;25173;50.430;18.926;2024-02-14T11:35:45;98739.31;;;12.66;51.09
39487;BME280;25173;50.430;18.926;2024-02-14T11:38:45;98739.59;;;12.74;50.86
39487;BME280;25173;50.430;18.926;2024-02-14T11:41:47;98736.00;;;12.84;50.72
39487;BME280;25173;50.430;18.926;2024-02-14T11:44:48;98731.91;;;12.92;50.46
39487;BME280;25173;50.430;18.926;2024-02-14T11:47:49;98726.69;;;12.90;49.90
39487;BME280;25173;50.430;18.926;2024-02-14T11:50:53;98725.59;;;12.91;49.85
39487;BME280;25173;50.430;18.926;2024-02-14T11:53:54;98726.66;;;13.05;50.05
39487;BME280;25173;50.430;18.926;2024-02-14T11:56:55;98725.84;;;13.20;49.76
39487;BME280;25173;50.430;18.926;2024-02-14T11:59:57;98718.97;;;13.38;49.77
39487;BME280;25173;50.430;18.926;2024-02-14T12:02:58;98717.50;;;13.66;49.77
39487;BME280;25173;50.430;18.926;2024-02-14T12:05:59;98712.47;;;13.88;48.82
39487;BME280;25173;50.430;18.926;2024-02-14T12:09:03;98715.72;;;13.95;48.65
39487;BME280;25173;50.430;18.926;2024-02-14T12:12:09;98710.19;;;14.05;48.59
39487;BME280;25173;50.430;18.926;2024-02-14T12:15:10;98718.03;;;14.17;48.32
39487;BME280;25173;50.430;18.926;2024-02-14T12:18:11;98708.72;;;14.18;47.62
39487;BME280;25173;50.430;18.926;2024-02-14T12:21:12;98703.84;;;14.15;47.02
39487;BME280;25173;50.430;18.926;2024-02-14T12:24:14;98705.25;;;14.07;47.03
39487;BME280;25173;50.430;18.926;2024-02-14T12:27:17;98711.25;;;14.09;46.65
39487;BME280;25173;50.430;18.926;2024-02-14T12:30:17;98695.28;;;14.21;46.76
39487;BME280;25173;50.430;18.926;2024-02-14T12:33:21;98685.94;;;14.27;46.42
39487;BME280;25173;50.430;18.926;2024-02-14T12:36:22;98696.84;;;14.32;46.66
39487;BME280;25173;50.430;18.926;2024-02-14T12:39:23;98698.47;;;14.38;46.18
39487;BME280;25173;50.430;18.926;2024-02-14T12:42:26;98690.13;;;14.54;45.94
39487;BME280;25173;50.430;18.926;2024-02-14T12:45:28;98697.44;;;14.63;45.80
39487;BME280;25173;50.430;18.926;2024-02-14T12:48:28;98686.09;;;14.75;45.55
39487;BME280;25173;50.430;18.926;2024-02-14T12:51:30;98690.41;;;14.86;45.67
39487;BME280;25173;50.430;18.926;2024-02-14T12:54:31;98691.97;;;14.92;45.36
39487;BME280;25173;50.430;18.926;2024-02-14T12:57:31;98690.81;;;14.98;45.49
39487;BME280;25173;50.430;18.926;2024-02-14T13:00:32;98693.47;;;15.08;45.14
39487;BME280;25173;50.430;18.926;2024-02-14T13:03:33;98688.44;;;15.15;44.74
39487;BME280;25173;50.430;18.926;2024-02-14T13:06:33;98689.00;;;15.12;44.69
39487;BME280;25173;50.430;18.926;2024-02-14T13:09:34;98681.78;;;15.22;44.69
39487;BME280;25173;50.430;18.926;2024-02-14T13:12:37;98684.16;;;15.33;44.26
39487;BME280;25173;50.430;18.926;2024-02-14T13:15:37;98682.22;;;15.34;43.98
39487;BME280;25173;50.430;18.926;2024-02-14T13:18:38;98683.97;;;15.25;43.85
39487;BME280;25173;50.430;18.926;2024-02-14T13:21:39;98678.13;;;15.31;44.02
39487;BME280;25173;50.430;18.926;2024-02-14T13:24:40;98679.34;;;15.44;44.11
39487;BME280;25173;50.430;18.926;2024-02-14T13:27:43;98675.09;;;15.57;43.75
39487;BME280;25173;50.430;18.926;2024-02-14T13:30:45;98672.13;;;15.72;43.98
39487;BME280;25173;50.430;18.926;2024-02-14T13:33:47;98680.25;;;15.82;43.56
39487;BME280;25173;50.430;18.926;2024-02-14T13:36:47;98676.09;;;15.84;43.32
39487;BME280;25173;50.430;18.926;2024-02-14T13:39:48;98676.09;;;15.84;43.45
39487;BME280;25173;50.430;18.926;2024-02-14T13:42:49;98676.03;;;15.89;43.33
39487;BME280;25173;50.430;18.926;2024-02-14T13:45:49;98670.81;;;15.88;43.03
39487;BME280;25173;50.430;18.926;2024-02-14T13:48:50;98672.84;;;15.82;42.82
39487;BME280;25173;50.430;18.926;2024-02-14T13:51:51;98672.31;;;15.80;42.48
39487;BME280;25173;50.430;18.926;2024-02-14T13:54:52;98668.53;;;15.76;42.40
39487;BME280;25173;50.430;18.926;2024-02-14T13:57:53;98670.28;;;15.67;42.76
39487;BME280;25173;50.430;18.926;2024-02-14T14:00:53;98662.34;;;15.66;42.76
39487;BME280;25173;50.430;18.926;2024-02-14T14:03:55;98663.16;;;15.66;42.70
39487;BME280;25173;50.430;18.926;2024-02-14T14:06:57;98668.00;;;15.74;42.41
39487;BME280;25173;50.430;18.926;2024-02-14T14:09:58;98665.69;;;15.81;41.98
39487;BME280;25173;50.430;18.926;2024-02-14T14:12:59;98666.66;;;15.72;42.10
39487;BME280;25173;50.430;18.926;2024-02-14T14:16:00;98663.69;;;15.68;42.37
39487;BME280;25173;50.430;18.926;2024-02-14T14:19:00;98663.25;;;15.80;42.50
39487;BME280;25173;50.430;18.926;2024-02-14T14:22:01;98672.69;;;15.93;42.39
39487;BME280;25173;50.430;18.926;2024-02-14T14:25:02;98677.50;;;16.01;42.43
39487;BME280;25173;50.430;18.926;2024-02-14T14:28:05;98669.03;;;16.16;42.31
39487;BME280;25173;50.430;18.926;2024-02-14T14:31:06;98674.75;;;16.19;42.03
39487;BME280;25173;50.430;18.926;2024-02-14T14:34:07;98665.31;;;16.25;41.82
39487;BME280;25173;50.430;18.926;2024-02-14T14:37:08;98660.34;;;16.27;41.50
39487;BME280;25173;50.430;18.926;2024-02-14T14:40:09;98658.19;;;16.24;41.26
39487;BME280;25173;50.430;18.926;2024-02-14T14:43:11;98665.78;;;16.14;41.59
39487;BME280;25173;50.430;18.926;2024-02-14T14:46:12;98669.94;;;16.11;41.44
39487;BME280;25173;50.430;18.926;2024-02-14T14:49:13;98662.59;;;16.07;41.33
39487;BME280;25173;50.430;18.926;2024-02-14T14:52:14;98664.38;;;15.98;41.38
39487;BME280;25173;50.430;18.926;2024-02-14T14:55:15;98663.47;;;15.83;41.61
39487;BME280;25173;50.430;18.926;2024-02-14T14:58:15;98663.75;;;15.63;41.50
39487;BME280;25173;50.430;18.926;2024-02-14T15:01:17;98667.81;;;15.42;41.64
39487;BME280;25173;50.430;18.926;2024-02-14T15:04:17;98650.25;;;15.19;41.82
39487;BME280;25173;50.430;18.926;2024-02-14T15:07:18;98656.03;;;14.94;42.20
39487;BME280;25173;50.430;18.926;2024-02-14T15:10:21;98650.44;;;14.75;42.39
39487;BME280;25173;50.430;18.926;2024-02-14T15:13:23;98641.56;;;14.59;42.70
39487;BME280;25173;50.430;18.926;2024-02-14T15:16:24;98639.47;;;14.46;43.10
39487;BME280;25173;50.430;18.926;2024-02-14T15:19:24;98641.47;;;14.35;43.12
39487;BME280;25173;50.430;18.926;2024-02-14T15:22:25;98641.00;;;14.28;43.40
39487;BME280;25173;50.430;18.926;2024-02-14T15:25:28;98641.31;;;14.22;43.57
39487;BME280;25173;50.430;18.926;2024-02-14T15:28:29;98644.94;;;14.12;43.79
39487;BME280;25173;50.430;18.926;2024-02-14T15:31:30;98639.28;;;13.98;44.01
39487;BME280;25173;50.430;18.926;2024-02-14T15:34:49;98633.63;;;13.85;44.13
39487;BME280;25173;50.430;18.926;2024-02-14T15:37:50;98649.06;;;13.71;44.42
39487;BME280;25173;50.430;18.926;2024-02-14T15:40:54;98642.56;;;13.51;44.71
39487;BME280;25173;50.430;18.926;2024-02-14T15:43:58;98648.69;;;13.33;45.02
39487;BME280;25173;50.430;18.926;2024-02-14T15:46:58;98643.78;;;13.20;45.13
39487;BME280;25173;50.430;18.926;2024-02-14T15:49:59;98650.66;;;13.07;45.37
39487;BME280;25173;50.430;18.926;2024-02-14T15:52:59;98648.78;;;12.93;45.72
39487;BME280;25173;50.430;18.926;2024-02-14T15:56:00;98654.00;;;12.79;45.96